createdAt,value
2023-04-10T00:01:47.062Z,25.30
2023-04-10T00:04:17.251Z,26.23
2023-04-10T00:06:45.971Z,23.73
2023-04-10T00:09:14.631Z,23.67
2023-04-10T00:11:43.229Z,22.57
2023-04-10T00:14:11.822Z,22.30
2023-04-10T00:16:40.660Z,22.20
2023-04-10T00:19:09.594Z,23.73
2023-04-10T00:21:39.739Z,23.10
2023-04-10T00:24:08.769Z,24.70
2023-04-10T00:26:37.932Z,23.27
2023-04-10T00:29:06.727Z,23.37
2023-04-10T00:31:35.824Z,21.23
2023-04-10T00:34:04.443Z,20.90
2023-04-10T00:36:33.430Z,20.97
2023-04-10T00:39:03.530Z,21.70
2023-04-10T00:41:32.290Z,21.63
2023-04-10T00:44:01.230Z,21.73
2023-04-10T00:46:31.398Z,20.17
2023-04-10T00:49:00.342Z,20.77
2023-04-10T00:51:29.144Z,22.63
2023-04-10T00:54:00.225Z,23.23
2023-04-10T00:56:32.467Z,20.93
2023-04-10T00:59:04.085Z,21.60
2023-04-10T01:01:33.912Z,22.33
2023-04-10T01:04:02.777Z,22.80
2023-04-10T01:06:41.855Z,22.57
2023-04-10T01:09:17.944Z,29.33
2023-04-10T01:11:55.198Z,29.03
2023-04-10T01:14:32.894Z,28.93
2023-04-10T01:17:09.002Z,28.60
2023-04-10T01:20:06.114Z,28.40
2023-04-10T01:22:38.178Z,26.93
2023-04-10T01:25:32.076Z,27.80
2023-04-10T01:28:23.789Z,27.23
2023-04-10T01:30:58.876Z,27.23
2023-04-10T01:33:34.551Z,29.90
2023-04-10T01:36:06.785Z,27.97
2023-04-10T01:38:37.954Z,28.30
2023-04-10T01:41:08.743Z,29.23
2023-04-10T01:43:39.126Z,27.73
2023-04-10T01:46:09.470Z,29.87
2023-04-10T01:48:38.241Z,30.23
2023-04-10T01:51:10.756Z,29.80
2023-04-10T01:53:40.605Z,30.57
2023-04-10T01:56:11.006Z,30.60
2023-04-10T01:58:40.097Z,30.77
2023-04-10T02:01:22.501Z,30.23
2023-04-10T02:03:57.966Z,30.80
2023-04-10T02:06:36.329Z,28.43
2023-04-10T02:09:12.188Z,37.47
2023-04-10T02:11:47.037Z,44.37
2023-04-10T02:14:19.696Z,43.50
2023-04-10T02:16:52.173Z,38.67
2023-04-10T02:19:22.598Z,36.70
2023-04-10T02:21:51.820Z,37.30
2023-04-10T02:24:21.320Z,36.07
2023-04-10T02:26:51.166Z,34.87
2023-04-10T02:29:20.555Z,36.37
2023-04-10T02:31:51.299Z,36.60
2023-04-10T02:34:19.969Z,33.87
2023-04-10T02:36:48.587Z,34.70
2023-04-10T02:39:17.247Z,32.67
2023-04-10T02:41:46.726Z,29.87
2023-04-10T02:44:16.040Z,31.30
2023-04-10T02:46:44.763Z,30.27
2023-04-10T02:49:14.783Z,28.87
2023-04-10T02:51:43.368Z,28.97
2023-04-10T02:54:11.863Z,30.57
2023-04-10T02:56:40.354Z,28.03
2023-04-10T02:59:08.850Z,28.70
2023-04-10T03:01:39.830Z,27.67
2023-04-10T03:04:08.674Z,27.37
2023-04-10T03:06:38.694Z,25.90
2023-04-10T03:09:07.456Z,26.83
2023-04-10T03:11:36.000Z,28.50
2023-04-10T03:14:04.540Z,29.03
2023-04-10T03:16:33.228Z,27.30
2023-04-10T03:19:02.176Z,27.23
2023-04-10T03:21:30.867Z,26.63
2023-04-10T03:24:01.289Z,28.17
2023-04-10T03:26:29.928Z,28.13
2023-04-10T03:28:58.447Z,30.83
2023-04-10T03:31:27.099Z,28.20
2023-04-10T03:33:56.032Z,29.47
2023-04-10T03:36:24.929Z,28.03
2023-04-10T03:38:53.522Z,27.07
2023-04-10T03:41:25.653Z,28.13
2023-04-10T03:43:54.466Z,28.67
2023-04-10T03:46:23.285Z,28.17
2023-04-10T03:48:54.241Z,30.97
2023-04-10T03:51:23.709Z,34.63
2023-04-10T03:53:52.583Z,34.27
2023-04-10T03:56:22.915Z,31.93
2023-04-10T03:58:51.423Z,28.10
2023-04-10T04:01:19.982Z,29.57
2023-04-10T04:03:48.641Z,33.43
2023-04-10T04:06:17.272Z,32.87
2023-04-10T04:08:45.799Z,32.03
2023-04-10T04:11:14.447Z,30.97
2023-04-10T04:13:44.423Z,31.40
2023-04-10T04:16:13.056Z,30.53
2023-04-10T04:18:41.706Z,29.73
2023-04-10T04:21:10.230Z,28.40
2023-04-10T04:23:38.741Z,28.73
2023-04-10T04:26:07.463Z,31.33
2023-04-10T04:28:36.213Z,28.63
2023-04-10T04:31:06.375Z,29.50
2023-04-10T04:33:34.921Z,29.60
2023-04-10T04:36:03.493Z,30.33
2023-04-10T04:38:32.062Z,27.97
2023-04-10T04:41:00.565Z,28.83
2023-04-10T04:43:28.970Z,28.77
2023-04-10T04:46:00.644Z,28.57
2023-04-10T04:48:30.546Z,29.03
2023-04-10T04:50:59.079Z,28.37
2023-04-10T04:53:27.520Z,29.27
2023-04-10T04:55:55.942Z,28.50
2023-04-10T04:58:24.975Z,29.80
2023-04-10T05:00:53.620Z,27.43
2023-04-10T05:03:22.713Z,27.40
2023-04-10T05:05:53.008Z,29.50
2023-04-10T05:08:21.618Z,28.67
2023-04-10T05:10:50.205Z,33.63
2023-04-10T05:13:18.723Z,30.23
2023-04-10T05:15:47.303Z,32.80
2023-04-10T05:18:19.803Z,29.17
2023-04-10T05:20:48.656Z,26.47
2023-04-10T05:23:18.937Z,25.60
2023-04-10T05:25:47.513Z,27.53
2023-04-10T05:28:16.060Z,28.50
2023-04-10T05:30:44.975Z,27.30
2023-04-10T05:33:13.487Z,25.47
2023-04-10T05:35:42.026Z,26.33
2023-04-10T05:38:10.788Z,25.40
2023-04-10T05:40:40.728Z,24.70
2023-04-10T05:43:09.920Z,27.50
2023-04-10T05:45:38.434Z,26.03
2023-04-10T05:48:08.318Z,23.90
2023-04-10T05:50:37.220Z,24.67
2023-04-10T05:53:05.815Z,27.27
2023-04-10T05:55:34.316Z,26.33
2023-04-10T05:58:04.236Z,26.60
2023-04-10T06:00:32.927Z,24.97
2023-04-10T06:03:01.963Z,23.97
2023-04-10T06:05:31.001Z,23.97
2023-04-10T06:07:59.456Z,24.40
2023-04-10T06:10:30.934Z,24.73
2023-04-10T06:12:59.528Z,24.27
2023-04-10T06:15:30.434Z,24.20
2023-04-10T06:17:59.120Z,23.60
2023-04-10T06:20:27.659Z,23.40
2023-04-10T06:22:56.302Z,23.23
2023-04-10T06:25:24.824Z,22.93
2023-04-10T06:27:53.422Z,22.47
2023-04-10T06:30:22.218Z,24.03
2023-04-10T06:32:52.376Z,22.50
2023-04-10T06:35:21.551Z,22.97
2023-04-10T06:37:50.252Z,24.20
2023-04-10T06:40:19.017Z,23.07
2023-04-10T06:42:47.603Z,26.33
2023-04-10T06:45:16.517Z,26.07
2023-04-10T06:47:45.254Z,28.93
2023-04-10T06:50:15.721Z,27.57
2023-04-10T06:52:46.287Z,27.77
2023-04-10T06:55:16.077Z,29.23
2023-04-10T06:57:45.995Z,29.37
2023-04-10T07:00:15.832Z,28.37
2023-04-10T07:02:50.070Z,27.57
2023-04-10T07:05:20.575Z,28.37
2023-04-10T07:07:50.894Z,28.93
2023-04-10T07:10:19.593Z,29.80
2023-04-10T07:12:48.171Z,28.67
2023-04-10T07:15:17.295Z,30.00
2023-04-10T07:17:45.989Z,29.43
2023-04-10T07:20:14.773Z,28.43
2023-04-10T07:22:44.875Z,29.83
2023-04-10T07:25:14.506Z,30.90
2023-04-10T07:27:43.383Z,32.10
2023-04-10T07:30:13.912Z,30.07
2023-04-10T07:32:43.440Z,31.23
2023-04-10T07:35:12.242Z,31.17
2023-04-10T07:37:42.278Z,31.43
2023-04-10T07:40:13.003Z,32.40
2023-04-10T07:42:41.718Z,31.40
2023-04-10T07:45:11.387Z,33.40
2023-04-10T07:47:39.984Z,32.93
2023-04-10T07:50:10.012Z,33.30
2023-04-10T07:52:38.613Z,33.40
2023-04-10T07:55:07.997Z,32.70
2023-04-10T07:57:41.605Z,31.37
2023-04-10T08:00:11.953Z,29.63
2023-04-10T08:02:41.680Z,29.23
2023-04-10T08:05:11.260Z,30.80
2023-04-10T08:07:40.254Z,31.30
2023-04-10T08:10:09.784Z,29.87
2023-04-10T08:12:39.891Z,28.63
2023-04-10T08:15:10.949Z,29.27
2023-04-10T08:17:39.736Z,29.67
2023-04-10T08:20:09.982Z,29.83
2023-04-10T08:22:38.635Z,28.43
2023-04-10T08:25:08.289Z,28.03
2023-04-10T08:27:38.576Z,28.17
2023-04-10T08:30:08.082Z,28.37
2023-04-10T08:32:37.677Z,29.20
2023-04-10T08:35:07.224Z,30.10
2023-04-10T08:37:35.989Z,29.90
2023-04-10T08:40:04.795Z,29.57
2023-04-10T08:42:34.665Z,28.80
2023-04-10T08:45:05.852Z,27.63
2023-04-10T08:47:39.490Z,30.50
2023-04-10T08:50:12.402Z,29.40
2023-04-10T08:52:45.630Z,28.47
2023-04-10T08:55:15.975Z,31.07
2023-04-10T08:57:54.107Z,28.87
2023-04-10T09:00:31.825Z,28.93
2023-04-10T09:03:00.813Z,30.20
2023-04-10T09:05:30.833Z,28.60
2023-04-10T09:07:59.366Z,29.93
2023-04-10T09:10:28.186Z,28.63
2023-04-10T09:12:56.767Z,28.73
2023-04-10T09:15:25.377Z,28.70
2023-04-10T09:18:00.366Z,28.70
2023-04-10T09:20:31.041Z,30.40
2023-04-10T09:22:59.717Z,29.23
2023-04-10T09:25:36.026Z,29.17
2023-04-10T09:28:06.532Z,30.80
2023-04-10T09:30:37.305Z,29.03
2023-04-10T09:33:23.650Z,29.03
2023-04-10T09:35:52.653Z,26.30
2023-04-10T09:38:23.070Z,29.00
2023-04-10T09:40:53.547Z,29.93
2023-04-10T09:43:25.080Z,27.90
2023-04-10T09:45:54.981Z,28.50
2023-04-10T09:48:25.913Z,28.13
2023-04-10T09:50:54.571Z,30.40
2023-04-10T09:53:50.352Z,28.10
2023-04-10T09:56:20.230Z,25.67
2023-04-10T09:58:50.220Z,26.90
2023-04-10T10:01:18.975Z,26.23
2023-04-10T10:03:49.241Z,27.00
2023-04-10T10:06:17.977Z,27.13
2023-04-10T10:08:46.882Z,26.00
2023-04-10T10:11:19.446Z,27.93
2023-04-10T10:13:52.385Z,26.83
2023-04-10T10:16:23.350Z,24.60
2023-04-10T10:19:01.429Z,25.13
2023-04-10T10:21:31.358Z,24.80
2023-04-10T10:24:02.492Z,25.07
2023-04-10T10:26:32.183Z,24.33
2023-04-10T10:29:04.601Z,25.40
2023-04-10T10:31:35.684Z,24.70
2023-04-10T10:34:07.780Z,23.40
2023-04-10T10:36:36.528Z,23.90
2023-04-10T10:39:30.863Z,23.67
2023-04-10T10:42:20.353Z,22.23
2023-04-10T10:44:54.268Z,22.80
2023-04-10T10:47:28.666Z,20.97
2023-04-10T10:50:00.335Z,20.37
2023-04-10T10:52:49.904Z,22.07
2023-04-10T10:55:37.478Z,21.30
2023-04-10T10:58:07.619Z,21.07
2023-04-10T11:01:10.745Z,19.53
2023-04-10T11:03:40.385Z,19.50
2023-04-10T11:06:13.032Z,22.10
2023-04-10T11:08:47.646Z,21.50
2023-04-10T11:11:17.993Z,21.73
2023-04-10T11:14:18.204Z,21.47
2023-04-10T11:16:50.704Z,22.50
2023-04-10T11:19:22.798Z,20.83
2023-04-10T11:22:08.636Z,19.90
2023-04-10T11:25:10.962Z,19.87
2023-04-10T11:27:49.856Z,18.93
2023-04-10T11:30:32.052Z,18.67
2023-04-10T11:33:02.191Z,19.30
2023-04-10T11:35:32.963Z,18.07
2023-04-10T11:38:19.646Z,17.27
2023-04-10T11:41:04.629Z,17.50
2023-04-10T11:43:33.982Z,17.53
2023-04-10T11:46:09.227Z,17.20
2023-04-10T11:48:38.955Z,17.83
2023-04-10T11:51:15.109Z,17.20
2023-04-10T11:53:45.237Z,17.53
2023-04-10T11:56:18.203Z,17.03
2023-04-10T11:58:46.818Z,16.47
2023-04-10T12:01:18.145Z,17.43
2023-04-10T12:03:46.850Z,17.37
2023-04-10T12:06:17.178Z,16.33
2023-04-10T12:08:49.689Z,17.47
2023-04-10T12:11:20.656Z,17.90
2023-04-10T12:13:50.124Z,17.50
2023-04-10T12:16:18.935Z,17.33
2023-04-10T12:18:47.905Z,17.37
2023-04-10T12:21:16.815Z,16.73
2023-04-10T12:23:46.928Z,17.73
2023-04-10T12:26:17.372Z,17.30
2023-04-10T12:28:54.199Z,19.93
2023-04-10T12:31:29.873Z,20.07
2023-04-10T12:33:59.723Z,20.63
2023-04-10T12:36:30.911Z,21.90
2023-04-10T12:39:04.788Z,21.03
2023-04-10T12:41:35.337Z,23.27
2023-04-10T12:44:11.887Z,21.60
2023-04-10T12:46:41.745Z,22.93
2023-04-10T12:49:12.235Z,21.63
2023-04-10T12:51:48.283Z,21.13
2023-04-10T12:54:32.744Z,17.27
2023-04-10T12:57:02.702Z,17.27
2023-04-10T12:59:31.878Z,17.70
2023-04-10T13:02:00.955Z,18.33
2023-04-10T13:04:31.471Z,18.93
2023-04-10T13:07:00.291Z,18.43
2023-04-10T13:09:29.231Z,20.60
2023-04-10T13:11:59.198Z,20.17
2023-04-10T13:14:30.138Z,21.23
2023-04-10T13:16:58.718Z,20.57
2023-04-10T13:19:27.314Z,19.13
2023-04-10T13:21:56.344Z,20.03
2023-04-10T13:24:25.817Z,19.10
2023-04-10T13:26:57.382Z,18.03
2023-04-10T13:29:27.726Z,18.70
2023-04-10T13:31:56.391Z,17.87
2023-04-10T13:34:25.089Z,17.83
2023-04-10T13:36:53.794Z,17.30
2023-04-10T13:39:22.466Z,16.30
2023-04-10T13:41:51.255Z,16.60
2023-04-10T13:44:20.065Z,15.10
2023-04-10T13:46:50.231Z,15.43
2023-04-10T13:49:20.707Z,14.93
2023-04-10T13:51:49.643Z,15.80
2023-04-10T13:54:18.415Z,14.67
2023-04-10T13:56:47.286Z,14.40
2023-04-10T13:59:16.089Z,14.73
2023-04-10T14:01:44.614Z,16.53
2023-04-10T14:04:14.701Z,15.47
2023-04-10T14:06:43.612Z,16.33
2023-04-10T14:09:12.178Z,16.53
2023-04-10T14:11:40.662Z,16.10
2023-04-10T14:14:09.146Z,14.93
2023-04-10T14:16:37.669Z,13.17
2023-04-10T14:19:06.231Z,13.40
2023-04-10T14:21:36.446Z,13.60
2023-04-10T14:24:05.056Z,14.77
2023-04-10T14:26:33.548Z,15.97
2023-04-10T14:29:03.005Z,15.67
2023-04-10T14:31:31.815Z,16.77
2023-04-10T14:34:00.678Z,14.53
2023-04-10T14:36:29.327Z,15.43
2023-04-10T14:38:59.953Z,13.80
2023-04-10T14:41:29.154Z,13.10
2023-04-10T14:43:57.888Z,13.80
2023-04-10T14:46:26.860Z,12.13
2023-04-10T14:48:57.730Z,14.17
2023-04-10T14:51:26.803Z,14.20
2023-04-10T14:53:55.875Z,12.87
2023-04-10T14:56:26.023Z,11.83
2023-04-10T14:58:54.530Z,10.57
2023-04-10T15:01:23.204Z,10.97
2023-04-10T15:03:51.949Z,13.00
2023-04-10T15:06:20.707Z,11.50
2023-04-10T15:08:49.481Z,11.03
2023-04-10T15:11:17.988Z,11.00
2023-04-10T15:13:49.590Z,11.10
2023-04-10T15:16:18.268Z,10.23
2023-04-10T15:18:49.856Z,9.37
2023-04-10T15:21:18.780Z,9.77
2023-04-10T15:23:47.431Z,9.80
2023-04-10T15:26:17.237Z,10.20
2023-04-10T15:28:45.971Z,10.30
2023-04-10T15:31:17.311Z,9.87
2023-04-10T15:33:46.019Z,10.03
2023-04-10T15:36:14.556Z,10.00
2023-04-10T15:38:42.998Z,10.30
2023-04-10T15:41:12.466Z,10.93
2023-04-10T15:43:42.934Z,10.23
2023-04-10T15:46:11.400Z,10.63
2023-04-10T15:48:41.318Z,9.30
2023-04-10T15:51:09.889Z,9.67
2023-04-10T15:53:38.827Z,10.13
2023-04-10T15:56:08.496Z,9.27
2023-04-10T15:58:36.974Z,9.37
2023-04-10T16:01:06.736Z,9.47
2023-04-10T16:03:35.485Z,10.00
2023-04-10T16:06:09.142Z,10.10
2023-04-10T16:08:37.573Z,10.37
2023-04-10T16:11:06.497Z,9.93
2023-04-10T16:13:35.009Z,11.30
2023-04-10T16:16:04.772Z,11.57
2023-04-10T16:18:35.569Z,10.63
2023-04-10T16:21:11.177Z,11.30
2023-04-10T16:23:40.485Z,11.70
2023-04-10T16:26:09.063Z,10.90
2023-04-10T16:28:40.747Z,10.90
2023-04-10T16:31:09.351Z,10.70
2023-04-10T16:33:38.094Z,10.53
2023-04-10T16:36:09.665Z,9.90
2023-04-10T16:38:38.081Z,9.83
2023-04-10T16:41:07.350Z,9.53
2023-04-10T16:43:36.038Z,9.27
2023-04-10T16:46:04.528Z,10.17
2023-04-10T16:48:34.925Z,10.07
2023-04-10T16:51:06.449Z,12.07
2023-04-10T16:53:36.994Z,11.23
2023-04-10T16:56:05.597Z,11.57
2023-04-10T16:58:36.205Z,12.00
2023-04-10T17:01:15.026Z,11.97
2023-04-10T17:03:43.917Z,14.30
2023-04-10T17:06:12.414Z,12.93
2023-04-10T17:08:42.447Z,12.77
2023-04-10T17:11:12.851Z,14.93
2023-04-10T17:13:41.558Z,16.13
2023-04-10T17:16:10.859Z,16.53
2023-04-10T17:18:39.324Z,17.03
2023-04-10T17:21:12.493Z,19.37
2023-04-10T17:23:42.919Z,16.17
2023-04-10T17:26:15.122Z,15.70
2023-04-10T17:28:49.070Z,14.93
2023-04-10T17:31:17.680Z,15.27
2023-04-10T17:33:46.282Z,16.13
2023-04-10T17:36:17.935Z,16.30
2023-04-10T17:38:47.973Z,16.57
2023-04-10T17:41:17.494Z,16.03
2023-04-10T17:43:46.140Z,18.10
2023-04-10T17:46:15.743Z,18.77
2023-04-10T17:48:44.762Z,23.77
2023-04-10T17:51:13.545Z,25.87
2023-04-10T17:53:41.978Z,23.67
2023-04-10T17:56:19.879Z,26.57
2023-04-10T17:58:48.630Z,25.93
2023-04-10T18:01:23.656Z,21.27
2023-04-10T18:03:52.175Z,19.13
2023-04-10T18:06:20.735Z,19.73
2023-04-10T18:08:49.294Z,19.53
2023-04-10T18:11:19.272Z,21.13
2023-04-10T18:13:48.733Z,19.50
2023-04-10T18:16:18.207Z,27.70
2023-04-10T18:18:46.733Z,40.07
2023-04-10T18:21:15.172Z,63.27
2023-04-10T18:23:45.039Z,50.07
2023-04-10T18:26:13.934Z,44.30
2023-04-10T18:28:46.454Z,72.50
2023-04-10T18:31:16.961Z,117.37
2023-04-10T18:33:45.795Z,99.43
2023-04-10T18:36:19.093Z,64.40
2023-04-10T18:38:48.059Z,103.40
2023-04-10T18:41:16.780Z,219.63
2023-04-10T18:43:51.225Z,380.33
2023-04-10T18:46:28.420Z,119.43
2023-04-10T18:48:57.324Z,75.97
2023-04-10T18:51:26.731Z,91.80
2023-04-10T18:53:55.591Z,78.83
2023-04-10T18:56:24.546Z,83.40
2023-04-10T18:58:54.814Z,78.93
2023-04-10T19:01:23.384Z,62.20
2023-04-10T19:03:52.929Z,65.97
2023-04-10T19:06:24.363Z,51.67
2023-04-10T19:08:52.945Z,58.23
2023-04-10T19:11:21.395Z,64.33
2023-04-10T19:13:50.274Z,63.17
2023-04-10T19:16:25.677Z,52.80
2023-04-10T19:18:55.514Z,48.73
2023-04-10T19:21:26.501Z,40.13
2023-04-10T19:23:55.249Z,40.07
2023-04-10T19:26:24.190Z,33.63
2023-04-10T19:28:54.219Z,32.47
2023-04-10T19:31:27.803Z,32.27
2023-04-10T19:33:57.500Z,27.50
2023-04-10T19:36:27.447Z,25.87
2023-04-10T19:38:57.670Z,26.73
2023-04-10T19:41:26.374Z,33.10
2023-04-10T19:43:55.152Z,34.33
2023-04-10T19:46:25.886Z,32.60
2023-04-10T19:48:56.440Z,34.30
2023-04-10T19:51:25.208Z,34.73
2023-04-10T19:53:56.066Z,36.53
2023-04-10T19:56:24.783Z,34.20
2023-04-10T19:58:53.311Z,31.87
2023-04-10T20:01:24.323Z,33.23
2023-04-10T20:03:54.896Z,27.60
2023-04-10T20:06:23.593Z,29.77
2023-04-10T20:08:53.090Z,30.07
2023-04-10T20:11:27.365Z,27.80
2023-04-10T20:13:55.977Z,26.43
2023-04-10T20:16:26.586Z,25.67
2023-04-10T20:18:57.413Z,25.87
2023-04-10T20:21:27.494Z,25.13
2023-04-10T20:23:57.700Z,38.00
2023-04-10T20:26:26.647Z,79.87
2023-04-10T20:28:55.882Z,101.47
2023-04-10T20:31:24.996Z,55.70
2023-04-10T20:33:55.054Z,45.23
2023-04-10T20:36:25.118Z,43.87
2023-04-10T20:38:54.050Z,69.63
2023-04-10T20:41:24.214Z,91.47
2023-04-10T20:43:55.948Z,42.20
2023-04-10T20:46:27.294Z,35.47
2023-04-10T20:48:57.237Z,33.50
2023-04-10T20:51:27.438Z,31.80
2023-04-10T20:53:56.137Z,30.07
2023-04-10T20:56:32.844Z,28.93
2023-04-10T20:59:09.047Z,27.70
2023-04-10T21:01:37.966Z,37.77
2023-04-10T21:04:06.900Z,56.77
2023-04-10T21:06:37.460Z,50.10
2023-04-10T21:09:06.157Z,51.80
2023-04-10T21:11:34.591Z,35.37
2023-04-10T21:14:03.556Z,28.53
2023-04-10T21:16:32.438Z,27.07
2023-04-10T21:19:00.947Z,28.07
2023-04-10T21:21:30.586Z,30.47
2023-04-10T21:24:00.522Z,29.37
2023-04-10T21:26:29.032Z,29.70
2023-04-10T21:28:57.543Z,29.03
2023-04-10T21:31:26.121Z,27.13
2023-04-10T21:33:54.982Z,28.13
2023-04-10T21:36:23.492Z,27.80
2023-04-10T21:38:52.163Z,27.00
2023-04-10T21:41:22.516Z,27.83
2023-04-10T21:43:51.022Z,27.40
2023-04-10T21:46:20.172Z,27.83
2023-04-10T21:48:48.635Z,25.93
2023-04-10T21:51:17.088Z,26.50
2023-04-10T21:53:45.584Z,25.57
2023-04-10T21:56:14.124Z,25.40
2023-04-10T21:58:44.243Z,26.63
2023-04-10T22:01:12.757Z,28.93
2023-04-10T22:03:41.585Z,36.23
2023-04-10T22:06:10.982Z,33.87
2023-04-10T22:08:40.525Z,30.67
2023-04-10T22:11:10.130Z,31.10
2023-04-10T22:13:38.589Z,30.20
2023-04-10T22:16:08.948Z,29.53
2023-04-10T22:18:37.359Z,28.67
2023-04-10T22:21:06.317Z,29.07
2023-04-10T22:23:34.744Z,29.70
2023-04-10T22:26:03.463Z,29.97
2023-04-10T22:28:33.431Z,29.77
2023-04-10T22:31:02.350Z,28.53
2023-04-10T22:33:34.356Z,28.73
2023-04-10T22:36:03.223Z,29.50
2023-04-10T22:38:32.017Z,28.13
2023-04-10T22:41:01.014Z,28.03
2023-04-10T22:43:29.429Z,27.90
2023-04-10T22:45:57.962Z,29.80
2023-04-10T22:48:26.675Z,28.73
2023-04-10T22:50:56.597Z,28.80
2023-04-10T22:53:25.109Z,29.47
2023-04-10T22:55:53.619Z,30.00
2023-04-10T22:58:22.023Z,29.57
2023-04-10T23:00:50.737Z,29.63
2023-04-10T23:03:19.225Z,31.70
2023-04-10T23:05:48.729Z,30.80
2023-04-10T23:08:18.637Z,30.60
2023-04-10T23:10:47.194Z,30.77
2023-04-10T23:13:15.684Z,29.93
2023-04-10T23:15:50.371Z,30.37
2023-04-10T23:18:19.808Z,30.03
2023-04-10T23:20:48.468Z,30.50
2023-04-10T23:23:18.561Z,30.20
2023-04-10T23:25:48.124Z,28.70
2023-04-10T23:28:16.655Z,31.10
2023-04-10T23:30:45.461Z,29.10
2023-04-10T23:33:14.084Z,28.87
2023-04-10T23:35:42.887Z,29.47
2023-04-10T23:38:11.886Z,31.00
2023-04-10T23:40:41.763Z,27.33
2023-04-10T23:43:10.281Z,30.83
2023-04-10T23:45:38.769Z,27.87
2023-04-10T23:48:08.935Z,28.30
2023-04-10T23:50:37.482Z,29.27
2023-04-10T23:53:08.763Z,27.53
2023-04-10T23:55:38.440Z,28.73
2023-04-10T23:58:08.429Z,29.30
